sensor_id;sensor_type;location;lat;lon;timestamp;P1;durP1;ratioP1;P2;durP2;ratioP2
50781;SDS011;36749;37.428;-121.972;2024-03-23T00:54:14;5.18;;;1.50;;
50781;SDS011;36749;37.428;-121.972;2024-03-23T00:56:40;3.85;;;1.35;;
50781;SDS011;36749;37.428;-121.972;2024-03-23T00:59:06;4.72;;;1.45;;
50781;SDS011;36749;37.428;-121.972;2024-03-23T01:01:32;3.65;;;1.50;;
50781;SDS011;36749;37.428;-121.972;2024-03-23T01:03:58;6.20;;;1.33;;
50781;SDS011;36749;37.428;-121.972;2024-03-23T01:06:25;3.90;;;1.30;;
50781;SDS011;36749;37.428;-121.972;2024-03-23T01:08:51;3.45;;;1.48;;
50781;SDS011;36749;37.428;-121.972;2024-03-23T01:11:17;7.47;;;1.65;;
50781;SDS011;36749;37.428;-121.972;2024-03-23T01:13:44;6.90;;;1.58;;
50781;SDS011;36749;37.428;-121.972;2024-03-23T01:16:10;2.92;;;1.30;;
50781;SDS011;36749;37.428;-121.972;2024-03-23T01:18:36;3.65;;;1.23;;
50781;SDS011;36749;37.428;-121.972;2024-03-23T01:21:02;4.53;;;1.52;;
50781;SDS011;36749;37.428;-121.972;2024-03-23T01:23:28;2.05;;;1.17;;
50781;SDS011;36749;37.428;-121.972;2024-03-23T01:25:55;2.80;;;1.30;;
50781;SDS011;36749;37.428;-121.972;2024-03-23T01:28:21;3.78;;;1.52;;
50781;SDS011;36749;37.428;-121.972;2024-03-23T01:30:47;2.58;;;1.45;;
50781;SDS011;36749;37.428;-121.972;2024-03-23T01:33:14;7.93;;;1.85;;
50781;SDS011;36749;37.428;-121.972;2024-03-23T01:35:40;3.65;;;1.35;;
50781;SDS011;36749;37.428;-121.972;2024-03-23T01:38:06;5.50;;;2.45;;
50781;SDS011;36749;37.428;-121.972;2024-03-23T01:40:32;5.18;;;1.40;;
50781;SDS011;36749;37.428;-121.972;2024-03-23T01:43:01;7.05;;;2.08;;
50781;SDS011;36749;37.428;-121.972;2024-03-23T01:45:30;3.00;;;1.23;;
50781;SDS011;36749;37.428;-121.972;2024-03-23T01:47:57;5.43;;;1.80;;
50781;SDS011;36749;37.428;-121.972;2024-03-23T01:50:24;6.25;;;1.48;;
50781;SDS011;36749;37.428;-121.972;2024-03-23T01:52:51;3.38;;;1.30;;
50781;SDS011;36749;37.428;-121.972;2024-03-23T01:55:17;4.75;;;1.50;;
50781;SDS011;36749;37.428;-121.972;2024-03-23T01:57:43;5.50;;;1.45;;
50781;SDS011;36749;37.428;-121.972;2024-03-23T02:00:10;3.65;;;1.20;;
50781;SDS011;36749;37.428;-121.972;2024-03-23T02:02:46;3.63;;;1.50;;
50781;SDS011;36749;37.428;-121.972;2024-03-23T02:05:12;3.90;;;1.40;;
50781;SDS011;36749;37.428;-121.972;2024-03-23T02:07:39;4.50;;;1.30;;
50781;SDS011;36749;37.428;-121.972;2024-03-23T02:10:06;6.15;;;2.08;;
50781;SDS011;36749;37.428;-121.972;2024-03-23T02:12:35;5.45;;;1.30;;
50781;SDS011;36749;37.428;-121.972;2024-03-23T02:15:02;4.13;;;1.40;;
50781;SDS011;36749;37.428;-121.972;2024-03-23T02:17:33;4.40;;;1.50;;
50781;SDS011;36749;37.428;-121.972;2024-03-23T02:20:00;4.47;;;1.48;;
50781;SDS011;36749;37.428;-121.972;2024-03-23T02:22:38;4.43;;;1.38;;
50781;SDS011;36749;37.428;-121.972;2024-03-23T02:25:05;5.47;;;1.80;;
50781;SDS011;36749;37.428;-121.972;2024-03-23T02:27:31;4.75;;;1.40;;
50781;SDS011;36749;37.428;-121.972;2024-03-23T02:29:58;3.65;;;1.30;;
50781;SDS011;36749;37.428;-121.972;2024-03-23T02:32:25;2.85;;;1.20;;
50781;SDS011;36749;37.428;-121.972;2024-03-23T02:34:51;1.73;;;1.42;;
50781;SDS011;36749;37.428;-121.972;2024-03-23T02:37:17;2.85;;;1.15;;
50781;SDS011;36749;37.428;-121.972;2024-03-23T02:39:43;6.22;;;1.60;;
50781;SDS011;36749;37.428;-121.972;2024-03-23T02:42:10;2.30;;;1.25;;
50781;SDS011;36749;37.428;-121.972;2024-03-23T02:44:36;3.47;;;1.23;;
50781;SDS011;36749;37.428;-121.972;2024-03-23T02:47:02;5.95;;;1.38;;
50781;SDS011;36749;37.428;-121.972;2024-03-23T02:49:28;3.30;;;1.60;;
50781;SDS011;36749;37.428;-121.972;2024-03-23T02:51:54;3.95;;;1.50;;
50781;SDS011;36749;37.428;-121.972;2024-03-23T02:54:20;3.70;;;1.30;;
50781;SDS011;36749;37.428;-121.972;2024-03-23T02:56:47;5.95;;;2.20;;
50781;SDS011;36749;37.428;-121.972;2024-03-23T02:59:13;2.85;;;1.38;;
50781;SDS011;36749;37.428;-121.972;2024-03-23T03:01:39;1.63;;;1.10;;
50781;SDS011;36749;37.428;-121.972;2024-03-23T03:04:05;1.83;;;1.40;;
50781;SDS011;36749;37.428;-121.972;2024-03-23T03:06:31;4.15;;;1.50;;
50781;SDS011;36749;37.428;-121.972;2024-03-23T03:08:58;2.65;;;1.30;;
50781;SDS011;36749;37.428;-121.972;2024-03-23T03:11:24;2.63;;;1.40;;
50781;SDS011;36749;37.428;-121.972;2024-03-23T03:13:52;4.68;;;1.83;;
50781;SDS011;36749;37.428;-121.972;2024-03-23T03:16:18;2.80;;;1.50;;
50781;SDS011;36749;37.428;-121.972;2024-03-23T03:18:44;6.28;;;1.52;;
50781;SDS011;36749;37.428;-121.972;2024-03-23T03:21:12;3.70;;;1.27;;
50781;SDS011;36749;37.428;-121.972;2024-03-23T03:23:38;3.70;;;1.40;;
50781;SDS011;36749;37.428;-121.972;2024-03-23T03:26:04;5.45;;;1.60;;
50781;SDS011;36749;37.428;-121.972;2024-03-23T03:28:31;4.53;;;1.65;;
50781;SDS011;36749;37.428;-121.972;2024-03-23T03:31:01;4.45;;;1.60;;
50781;SDS011;36749;37.428;-121.972;2024-03-23T03:33:27;7.53;;;1.35;;
50781;SDS011;36749;37.428;-121.972;2024-03-23T03:35:54;4.90;;;1.65;;
50781;SDS011;36749;37.428;-121.972;2024-03-23T03:38:20;6.32;;;1.42;;
50781;SDS011;36749;37.428;-121.972;2024-03-23T03:40:47;7.13;;;1.60;;
50781;SDS011;36749;37.428;-121.972;2024-03-23T03:43:13;2.63;;;1.23;;
50781;SDS011;36749;37.428;-121.972;2024-03-23T03:45:39;3.60;;;1.80;;
50781;SDS011;36749;37.428;-121.972;2024-03-23T03:48:06;5.43;;;2.15;;
50781;SDS011;36749;37.428;-121.972;2024-03-23T03:50:32;4.57;;;1.98;;
50781;SDS011;36749;37.428;-121.972;2024-03-23T03:52:58;9.57;;;2.80;;
50781;SDS011;36749;37.428;-121.972;2024-03-23T03:55:25;11.05;;;1.58;;
50781;SDS011;36749;37.428;-121.972;2024-03-23T03:57:51;8.85;;;1.83;;
50781;SDS011;36749;37.428;-121.972;2024-03-23T04:00:17;4.90;;;1.30;;
50781;SDS011;36749;37.428;-121.972;2024-03-23T04:02:43;8.20;;;1.60;;
50781;SDS011;36749;37.428;-121.972;2024-03-23T04:05:10;9.65;;;1.90;;
50781;SDS011;36749;37.428;-121.972;2024-03-23T04:07:36;11.48;;;2.42;;
50781;SDS011;36749;37.428;-121.972;2024-03-23T04:10:02;13.07;;;2.22;;
50781;SDS011;36749;37.428;-121.972;2024-03-23T04:12:32;7.32;;;1.67;;
50781;SDS011;36749;37.428;-121.972;2024-03-23T04:14:58;3.47;;;1.23;;
50781;SDS011;36749;37.428;-121.972;2024-03-23T04:17:24;7.95;;;1.27;;
50781;SDS011;36749;37.428;-121.972;2024-03-23T04:19:52;7.38;;;1.58;;
50781;SDS011;36749;37.428;-121.972;2024-03-23T04:22:19;4.68;;;1.02;;
50781;SDS011;36749;37.428;-121.972;2024-03-23T04:24:45;4.47;;;1.20;;
50781;SDS011;36749;37.428;-121.972;2024-03-23T04:27:11;1.20;;;0.98;;
50781;SDS011;36749;37.428;-121.972;2024-03-23T04:29:38;4.22;;;1.20;;
50781;SDS011;36749;37.428;-121.972;2024-03-23T04:32:04;1.15;;;0.82;;
50781;SDS011;36749;37.428;-121.972;2024-03-23T04:34:30;1.23;;;0.90;;
50781;SDS011;36749;37.428;-121.972;2024-03-23T04:36:58;5.50;;;1.25;;
50781;SDS011;36749;37.428;-121.972;2024-03-23T04:39:24;1.70;;;1.00;;
50781;SDS011;36749;37.428;-121.972;2024-03-23T04:41:50;2.65;;;1.25;;
50781;SDS011;36749;37.428;-121.972;2024-03-23T04:44:17;2.35;;;1.00;;
50781;SDS011;36749;37.428;-121.972;2024-03-23T04:46:43;2.05;;;1.25;;
50781;SDS011;36749;37.428;-121.972;2024-03-23T04:49:09;2.38;;;1.60;;
50781;SDS011;36749;37.428;-121.972;2024-03-23T04:51:36;3.65;;;1.52;;
50781;SDS011;36749;37.428;-121.972;2024-03-23T04:54:03;1.42;;;1.30;;
50781;SDS011;36749;37.428;-121.972;2024-03-23T04:56:29;3.90;;;1.50;;
50781;SDS011;36749;37.428;-121.972;2024-03-23T04:58:56;2.60;;;1.50;;
50781;SDS011;36749;37.428;-121.972;2024-03-23T05:01:27;1.75;;;1.25;;
50781;SDS011;36749;37.428;-121.972;2024-03-23T05:03:53;2.80;;;1.40;;
50781;SDS011;36749;37.428;-121.972;2024-03-23T05:06:19;4.50;;;1.40;;
50781;SDS011;36749;37.428;-121.972;2024-03-23T05:08:46;2.88;;;0.93;;
50781;SDS011;36749;37.428;-121.972;2024-03-23T05:11:12;4.50;;;1.85;;
50781;SDS011;36749;37.428;-121.972;2024-03-23T05:13:38;5.25;;;1.90;;
50781;SDS011;36749;37.428;-121.972;2024-03-23T05:16:04;3.95;;;1.20;;
50781;SDS011;36749;37.428;-121.972;2024-03-23T05:18:31;4.25;;;1.30;;
50781;SDS011;36749;37.428;-121.972;2024-03-23T05:20:57;4.75;;;2.53;;
50781;SDS011;36749;37.428;-121.972;2024-03-23T05:23:24;5.18;;;2.30;;
50781;SDS011;36749;37.428;-121.972;2024-03-23T05:25:51;3.65;;;1.80;;
50781;SDS011;36749;37.428;-121.972;2024-03-23T05:28:18;5.20;;;2.70;;
50781;SDS011;36749;37.428;-121.972;2024-03-23T05:30:50;2.75;;;1.70;;
50781;SDS011;36749;37.428;-121.972;2024-03-23T05:33:18;4.75;;;1.45;;
50781;SDS011;36749;37.428;-121.972;2024-03-23T05:35:44;3.55;;;1.60;;
50781;SDS011;36749;37.428;-121.972;2024-03-23T05:38:11;6.57;;;1.77;;
50781;SDS011;36749;37.428;-121.972;2024-03-23T05:40:37;5.80;;;1.70;;
50781;SDS011;36749;37.428;-121.972;2024-03-23T05:43:05;4.03;;;1.58;;
50781;SDS011;36749;37.428;-121.972;2024-03-23T05:45:32;2.28;;;1.42;;
50781;SDS011;36749;37.428;-121.972;2024-03-23T05:47:58;4.60;;;1.35;;
50781;SDS011;36749;37.428;-121.972;2024-03-23T05:50:24;4.22;;;1.52;;
50781;SDS011;36749;37.428;-121.972;2024-03-23T05:52:51;1.38;;;1.27;;
50781;SDS011;36749;37.428;-121.972;2024-03-23T05:55:17;9.90;;;2.13;;
50781;SDS011;36749;37.428;-121.972;2024-03-23T05:57:43;5.10;;;1.80;;
50781;SDS011;36749;37.428;-121.972;2024-03-23T06:00:10;6.00;;;1.90;;
50781;SDS011;36749;37.428;-121.972;2024-03-23T06:02:55;4.18;;;1.50;;
50781;SDS011;36749;37.428;-121.972;2024-03-23T06:05:21;5.85;;;2.00;;
50781;SDS011;36749;37.428;-121.972;2024-03-23T06:07:49;8.52;;;1.73;;
50781;SDS011;36749;37.428;-121.972;2024-03-23T06:10:15;5.55;;;1.70;;
50781;SDS011;36749;37.428;-121.972;2024-03-23T06:12:41;2.60;;;1.30;;
50781;SDS011;36749;37.428;-121.972;2024-03-23T06:15:08;4.78;;;1.70;;
50781;SDS011;36749;37.428;-121.972;2024-03-23T06:17:38;6.13;;;1.40;;
50781;SDS011;36749;37.428;-121.972;2024-03-23T06:20:05;6.15;;;1.45;;
50781;SDS011;36749;37.428;-121.972;2024-03-23T06:22:32;8.68;;;2.05;;
50781;SDS011;36749;37.428;-121.972;2024-03-23T06:24:59;6.22;;;1.80;;
50781;SDS011;36749;37.428;-121.972;2024-03-23T06:27:25;6.07;;;1.80;;
50781;SDS011;36749;37.428;-121.972;2024-03-23T06:29:51;3.97;;;1.40;;
50781;SDS011;36749;37.428;-121.972;2024-03-23T06:32:17;8.13;;;1.90;;
50781;SDS011;36749;37.428;-121.972;2024-03-23T06:34:44;5.55;;;1.27;;
50781;SDS011;36749;37.428;-121.972;2024-03-23T06:37:11;4.47;;;1.60;;
50781;SDS011;36749;37.428;-121.972;2024-03-23T06:39:37;2.00;;;1.20;;
50781;SDS011;36749;37.428;-121.972;2024-03-23T06:42:04;5.68;;;1.83;;
50781;SDS011;36749;37.428;-121.972;2024-03-23T06:44:31;6.07;;;1.77;;
50781;SDS011;36749;37.428;-121.972;2024-03-23T06:46:57;8.18;;;1.98;;
50781;SDS011;36749;37.428;-121.972;2024-03-23T06:49:23;5.03;;;1.25;;
50781;SDS011;36749;37.428;-121.972;2024-03-23T06:51:50;6.88;;;1.90;;
50781;SDS011;36749;37.428;-121.972;2024-03-23T06:54:16;7.78;;;1.80;;
50781;SDS011;36749;37.428;-121.972;2024-03-23T06:56:46;3.95;;;1.50;;
50781;SDS011;36749;37.428;-121.972;2024-03-23T06:59:12;10.52;;;2.17;;
50781;SDS011;36749;37.428;-121.972;2024-03-23T07:01:38;6.13;;;2.42;;
50781;SDS011;36749;37.428;-121.972;2024-03-23T07:04:04;9.63;;;2.20;;
50781;SDS011;36749;37.428;-121.972;2024-03-23T07:06:31;6.28;;;2.15;;
50781;SDS011;36749;37.428;-121.972;2024-03-23T07:08:57;5.75;;;1.77;;
50781;SDS011;36749;37.428;-121.972;2024-03-23T07:11:24;4.60;;;1.52;;
50781;SDS011;36749;37.428;-121.972;2024-03-23T07:13:50;6.15;;;2.10;;
50781;SDS011;36749;37.428;-121.972;2024-03-23T07:16:18;5.22;;;1.73;;
50781;SDS011;36749;37.428;-121.972;2024-03-23T07:18:44;6.28;;;2.17;;
50781;SDS011;36749;37.428;-121.972;2024-03-23T07:21:10;4.28;;;1.70;;
50781;SDS011;36749;37.428;-121.972;2024-03-23T07:23:36;6.90;;;1.90;;
50781;SDS011;36749;37.428;-121.972;2024-03-23T07:26:04;1.67;;;1.23;;
50781;SDS011;36749;37.428;-121.972;2024-03-23T07:28:31;7.20;;;1.85;;
50781;SDS011;36749;37.428;-121.972;2024-03-23T07:33:27;7.57;;;2.05;;
50781;SDS011;36749;37.428;-121.972;2024-03-23T07:35:54;3.08;;;1.48;;
50781;SDS011;36749;37.428;-121.972;2024-03-23T07:38:20;8.73;;;1.80;;
50781;SDS011;36749;37.428;-121.972;2024-03-23T07:40:46;5.57;;;1.80;;
50781;SDS011;36749;37.428;-121.972;2024-03-23T07:43:15;7.28;;;1.48;;
50781;SDS011;36749;37.428;-121.972;2024-03-23T07:45:41;12.63;;;1.90;;
50781;SDS011;36749;37.428;-121.972;2024-03-23T07:48:08;6.72;;;1.88;;
50781;SDS011;36749;37.428;-121.972;2024-03-23T07:50:34;8.02;;;2.60;;
50781;SDS011;36749;37.428;-121.972;2024-03-23T08:38:25;9.52;;;2.08;;
50781;SDS011;36749;37.428;-121.972;2024-03-23T08:41:06;9.68;;;2.38;;
50781;SDS011;36749;37.428;-121.972;2024-03-23T08:43:37;7.53;;;2.40;;
50781;SDS011;36749;37.428;-121.972;2024-03-23T08:46:07;7.55;;;2.85;;
50781;SDS011;36749;37.428;-121.972;2024-03-23T08:48:35;7.18;;;2.28;;
50781;SDS011;36749;37.428;-121.972;2024-03-23T08:51:02;9.07;;;2.50;;
50781;SDS011;36749;37.428;-121.972;2024-03-23T08:53:29;10.18;;;2.53;;
50781;SDS011;36749;37.428;-121.972;2024-03-23T08:55:56;7.53;;;2.47;;
50781;SDS011;36749;37.428;-121.972;2024-03-23T08:58:25;6.15;;;2.30;;
50781;SDS011;36749;37.428;-121.972;2024-03-23T09:00:52;8.45;;;2.40;;
50781;SDS011;36749;37.428;-121.972;2024-03-23T09:03:22;12.38;;;3.30;;
50781;SDS011;36749;37.428;-121.972;2024-03-23T09:05:49;7.32;;;3.13;;
50781;SDS011;36749;37.428;-121.972;2024-03-23T09:08:16;7.40;;;2.47;;
50781;SDS011;36749;37.428;-121.972;2024-03-23T09:10:42;7.43;;;2.72;;
50781;SDS011;36749;37.428;-121.972;2024-03-23T09:13:09;10.75;;;2.80;;
50781;SDS011;36749;37.428;-121.972;2024-03-23T09:15:35;9.48;;;2.80;;
50781;SDS011;36749;37.428;-121.972;2024-03-23T09:18:03;6.10;;;2.70;;
50781;SDS011;36749;37.428;-121.972;2024-03-23T09:20:32;7.07;;;3.40;;
50781;SDS011;36749;37.428;-121.972;2024-03-23T09:22:59;7.22;;;2.75;;
50781;SDS011;36749;37.428;-121.972;2024-03-23T09:25:25;9.55;;;2.38;;
50781;SDS011;36749;37.428;-121.972;2024-03-23T09:27:51;11.27;;;2.58;;
50781;SDS011;36749;37.428;-121.972;2024-03-23T09:30:17;12.52;;;3.00;;
50781;SDS011;36749;37.428;-121.972;2024-03-23T09:32:45;10.35;;;3.45;;
50781;SDS011;36749;37.428;-121.972;2024-03-23T09:35:11;8.20;;;3.78;;
50781;SDS011;36749;37.428;-121.972;2024-03-23T09:37:38;9.35;;;3.45;;
50781;SDS011;36749;37.428;-121.972;2024-03-23T09:40:10;12.90;;;3.15;;
50781;SDS011;36749;37.428;-121.972;2024-03-23T09:42:37;9.13;;;3.42;;
50781;SDS011;36749;37.428;-121.972;2024-03-23T09:45:10;6.90;;;3.33;;
50781;SDS011;36749;37.428;-121.972;2024-03-23T09:47:42;12.90;;;3.67;;
50781;SDS011;36749;37.428;-121.972;2024-03-23T09:50:09;10.90;;;3.05;;
50781;SDS011;36749;37.428;-121.972;2024-03-23T09:52:35;8.38;;;3.03;;
50781;SDS011;36749;37.428;-121.972;2024-03-23T09:55:01;8.73;;;3.05;;
50781;SDS011;36749;37.428;-121.972;2024-03-23T09:57:29;14.63;;;3.25;;
50781;SDS011;36749;37.428;-121.972;2024-03-23T09:59:55;9.32;;;3.58;;
50781;SDS011;36749;37.428;-121.972;2024-03-23T10:02:23;6.00;;;2.60;;
50781;SDS011;36749;37.428;-121.972;2024-03-23T10:04:50;8.88;;;2.50;;
50781;SDS011;36749;37.428;-121.972;2024-03-23T10:07:19;10.68;;;2.90;;
50781;SDS011;36749;37.428;-121.972;2024-03-23T10:09:47;6.95;;;2.28;;
50781;SDS011;36749;37.428;-121.972;2024-03-23T10:12:14;12.55;;;3.13;;
50781;SDS011;36749;37.428;-121.972;2024-03-23T10:14:41;9.98;;;3.28;;
50781;SDS011;36749;37.428;-121.972;2024-03-23T10:17:14;9.65;;;3.05;;
50781;SDS011;36749;37.428;-121.972;2024-03-23T10:19:43;6.05;;;2.65;;
50781;SDS011;36749;37.428;-121.972;2024-03-23T10:22:17;7.70;;;3.10;;
50781;SDS011;36749;37.428;-121.972;2024-03-23T10:24:43;11.50;;;3.03;;
50781;SDS011;36749;37.428;-121.972;2024-03-23T10:27:13;9.15;;;3.33;;
50781;SDS011;36749;37.428;-121.972;2024-03-23T10:29:43;9.73;;;2.95;;
50781;SDS011;36749;37.428;-121.972;2024-03-23T10:32:10;10.65;;;3.78;;
50781;SDS011;36749;37.428;-121.972;2024-03-23T10:34:37;11.50;;;3.20;;
50781;SDS011;36749;37.428;-121.972;2024-03-23T10:37:04;14.20;;;3.47;;
50781;SDS011;36749;37.428;-121.972;2024-03-23T10:39:34;11.38;;;3.33;;
50781;SDS011;36749;37.428;-121.972;2024-03-23T10:42:05;7.05;;;2.83;;
50781;SDS011;36749;37.428;-121.972;2024-03-23T10:44:33;3.83;;;2.33;;
50781;SDS011;36749;37.428;-121.972;2024-03-23T10:47:03;9.07;;;2.70;;
50781;SDS011;36749;37.428;-121.972;2024-03-23T10:49:30;10.88;;;3.10;;
50781;SDS011;36749;37.428;-121.972;2024-03-23T10:52:07;6.85;;;2.92;;
50781;SDS011;36749;37.428;-121.972;2024-03-23T10:54:33;9.85;;;2.85;;
50781;SDS011;36749;37.428;-121.972;2024-03-23T10:57:02;10.50;;;2.92;;
50781;SDS011;36749;37.428;-121.972;2024-03-23T10:59:31;5.65;;;2.75;;
50781;SDS011;36749;37.428;-121.972;2024-03-23T11:01:58;9.95;;;2.90;;
50781;SDS011;36749;37.428;-121.972;2024-03-23T11:04:35;8.77;;;2.83;;
50781;SDS011;36749;37.428;-121.972;2024-03-23T11:07:49;10.00;;;2.92;;
50781;SDS011;36749;37.428;-121.972;2024-03-23T11:09:50;7.30;;;2.70;;
50781;SDS011;36749;37.428;-121.972;2024-03-23T11:14:53;8.50;;;2.30;;
50781;SDS011;36749;37.428;-121.972;2024-03-23T11:17:29;7.32;;;2.50;;
50781;SDS011;36749;37.428;-121.972;2024-03-23T11:19:56;9.15;;;2.88;;
50781;SDS011;36749;37.428;-121.972;2024-03-23T11:25:24;8.35;;;2.70;;
50781;SDS011;36749;37.428;-121.972;2024-03-23T11:27:52;7.18;;;3.08;;
50781;SDS011;36749;37.428;-121.972;2024-03-23T11:32:47;8.05;;;2.20;;
50781;SDS011;36749;37.428;-121.972;2024-03-23T11:38:01;11.07;;;2.20;;
50781;SDS011;36749;37.428;-121.972;2024-03-23T11:40:29;10.45;;;2.38;;
50781;SDS011;36749;37.428;-121.972;2024-03-23T11:42:56;6.22;;;2.42;;
50781;SDS011;36749;37.428;-121.972;2024-03-23T11:45:33;6.22;;;2.25;;
50781;SDS011;36749;37.428;-121.972;2024-03-23T11:48:08;8.82;;;2.58;;
50781;SDS011;36749;37.428;-121.972;2024-03-23T11:50:55;6.22;;;2.28;;
50781;SDS011;36749;37.428;-121.972;2024-03-23T11:53:25;9.07;;;2.97;;
50781;SDS011;36749;37.428;-121.972;2024-03-23T11:55:56;9.10;;;3.10;;
50781;SDS011;36749;37.428;-121.972;2024-03-23T11:58:23;9.05;;;2.60;;
50781;SDS011;36749;37.428;-121.972;2024-03-23T12:00:59;11.43;;;2.85;;
50781;SDS011;36749;37.428;-121.972;2024-03-23T12:03:28;11.40;;;3.28;;
50781;SDS011;36749;37.428;-121.972;2024-03-23T12:05:55;9.82;;;2.40;;
50781;SDS011;36749;37.428;-121.972;2024-03-23T12:08:23;9.25;;;2.75;;
50781;SDS011;36749;37.428;-121.972;2024-03-23T12:13:36;8.70;;;2.65;;
50781;SDS011;36749;37.428;-121.972;2024-03-23T12:16:15;9.80;;;3.20;;
50781;SDS011;36749;37.428;-121.972;2024-03-23T12:18:43;7.60;;;2.58;;
50781;SDS011;36749;37.428;-121.972;2024-03-23T12:21:10;8.98;;;2.60;;
50781;SDS011;36749;37.428;-121.972;2024-03-23T12:23:38;7.45;;;2.40;;
50781;SDS011;36749;37.428;-121.972;2024-03-23T12:26:05;6.65;;;2.40;;
50781;SDS011;36749;37.428;-121.972;2024-03-23T12:28:31;7.35;;;2.13;;
50781;SDS011;36749;37.428;-121.972;2024-03-23T12:30:58;7.20;;;2.42;;
50781;SDS011;36749;37.428;-121.972;2024-03-23T12:33:24;8.57;;;2.42;;
50781;SDS011;36749;37.428;-121.972;2024-03-23T12:35:50;9.18;;;2.75;;
50781;SDS011;36749;37.428;-121.972;2024-03-23T12:38:19;10.82;;;3.10;;
50781;SDS011;36749;37.428;-121.972;2024-03-23T12:40:48;9.77;;;3.30;;
50781;SDS011;36749;37.428;-121.972;2024-03-23T12:43:14;10.20;;;2.45;;
50781;SDS011;36749;37.428;-121.972;2024-03-23T12:45:45;8.00;;;3.13;;
50781;SDS011;36749;37.428;-121.972;2024-03-23T12:48:15;7.75;;;2.33;;
50781;SDS011;36749;37.428;-121.972;2024-03-23T12:50:42;10.60;;;2.72;;
50781;SDS011;36749;37.428;-121.972;2024-03-23T12:53:08;9.65;;;2.90;;
50781;SDS011;36749;37.428;-121.972;2024-03-23T12:55:35;10.00;;;2.08;;
50781;SDS011;36749;37.428;-121.972;2024-03-23T12:58:02;12.93;;;3.42;;
50781;SDS011;36749;37.428;-121.972;2024-03-23T13:00:28;8.30;;;2.20;;
50781;SDS011;36749;37.428;-121.972;2024-03-23T13:02:54;13.68;;;2.60;;
50781;SDS011;36749;37.428;-121.972;2024-03-23T13:05:21;13.00;;;3.00;;
50781;SDS011;36749;37.428;-121.972;2024-03-23T13:07:47;11.95;;;3.58;;
50781;SDS011;36749;37.428;-121.972;2024-03-23T13:10:13;12.07;;;2.90;;
50781;SDS011;36749;37.428;-121.972;2024-03-23T13:12:40;14.85;;;2.25;;
50781;SDS011;36749;37.428;-121.972;2024-03-23T13:15:08;11.30;;;2.75;;
50781;SDS011;36749;37.428;-121.972;2024-03-23T13:17:34;18.25;;;3.17;;
50781;SDS011;36749;37.428;-121.972;2024-03-23T13:20:00;12.10;;;2.45;;
50781;SDS011;36749;37.428;-121.972;2024-03-23T13:22:28;11.27;;;2.72;;
50781;SDS011;36749;37.428;-121.972;2024-03-23T13:24:55;15.02;;;3.25;;
50781;SDS011;36749;37.428;-121.972;2024-03-23T13:27:21;10.10;;;2.80;;
50781;SDS011;36749;37.428;-121.972;2024-03-23T13:29:47;12.35;;;2.80;;
50781;SDS011;36749;37.428;-121.972;2024-03-23T13:32:14;11.07;;;2.67;;
50781;SDS011;36749;37.428;-121.972;2024-03-23T13:34:40;17.20;;;2.58;;
50781;SDS011;36749;37.428;-121.972;2024-03-23T13:37:06;14.38;;;3.67;;
50781;SDS011;36749;37.428;-121.972;2024-03-23T13:39:32;11.60;;;3.35;;
50781;SDS011;36749;37.428;-121.972;2024-03-23T13:41:58;11.45;;;3.33;;
50781;SDS011;36749;37.428;-121.972;2024-03-23T13:44:25;13.93;;;3.20;;
50781;SDS011;36749;37.428;-121.972;2024-03-23T13:46:51;13.70;;;3.25;;
50781;SDS011;36749;37.428;-121.972;2024-03-23T13:49:30;16.70;;;3.38;;
50781;SDS011;36749;37.428;-121.972;2024-03-23T13:51:57;18.20;;;4.25;;
50781;SDS011;36749;37.428;-121.972;2024-03-23T13:54:24;9.88;;;3.28;;
50781;SDS011;36749;37.428;-121.972;2024-03-23T13:56:51;13.45;;;3.42;;
50781;SDS011;36749;37.428;-121.972;2024-03-23T13:59:18;14.65;;;3.42;;
50781;SDS011;36749;37.428;-121.972;2024-03-23T14:01:44;8.38;;;2.75;;
50781;SDS011;36749;37.428;-121.972;2024-03-23T14:04:11;9.20;;;2.85;;
50781;SDS011;36749;37.428;-121.972;2024-03-23T14:06:38;12.52;;;3.15;;
50781;SDS011;36749;37.428;-121.972;2024-03-23T14:09:07;10.30;;;2.47;;
50781;SDS011;36749;37.428;-121.972;2024-03-23T14:11:36;10.35;;;2.83;;
50781;SDS011;36749;37.428;-121.972;2024-03-23T14:14:03;10.73;;;2.30;;
50781;SDS011;36749;37.428;-121.972;2024-03-23T14:16:30;10.10;;;2.55;;
50781;SDS011;36749;37.428;-121.972;2024-03-23T14:18:57;10.02;;;3.20;;
50781;SDS011;36749;37.428;-121.972;2024-03-23T14:21:23;12.77;;;3.40;;
50781;SDS011;36749;37.428;-121.972;2024-03-23T14:23:50;15.05;;;3.17;;
50781;SDS011;36749;37.428;-121.972;2024-03-23T14:26:16;11.07;;;2.50;;
50781;SDS011;36749;37.428;-121.972;2024-03-23T14:28:42;10.48;;;2.58;;
50781;SDS011;36749;37.428;-121.972;2024-03-23T14:31:08;10.77;;;2.80;;
50781;SDS011;36749;37.428;-121.972;2024-03-23T14:33:37;11.18;;;2.88;;
50781;SDS011;36749;37.428;-121.972;2024-03-23T14:36:07;14.23;;;3.28;;
50781;SDS011;36749;37.428;-121.972;2024-03-23T14:38:33;12.27;;;3.35;;
50781;SDS011;36749;37.428;-121.972;2024-03-23T14:41:00;12.15;;;2.90;;
50781;SDS011;36749;37.428;-121.972;2024-03-23T14:43:28;9.63;;;2.80;;
50781;SDS011;36749;37.428;-121.972;2024-03-23T14:46:11;13.95;;;3.88;;
50781;SDS011;36749;37.428;-121.972;2024-03-23T14:48:38;16.75;;;3.25;;
50781;SDS011;36749;37.428;-121.972;2024-03-23T14:51:06;19.73;;;3.42;;
50781;SDS011;36749;37.428;-121.972;2024-03-23T14:53:34;12.77;;;2.80;;
50781;SDS011;36749;37.428;-121.972;2024-03-23T14:56:01;14.00;;;3.42;;
50781;SDS011;36749;37.428;-121.972;2024-03-23T14:58:28;8.70;;;2.40;;
50781;SDS011;36749;37.428;-121.972;2024-03-23T15:01:01;12.05;;;3.13;;
50781;SDS011;36749;37.428;-121.972;2024-03-23T15:03:28;11.82;;;3.60;;
50781;SDS011;36749;37.428;-121.972;2024-03-23T15:05:58;7.15;;;2.67;;
50781;SDS011;36749;37.428;-121.972;2024-03-23T15:08:27;18.08;;;3.25;;
50781;SDS011;36749;37.428;-121.972;2024-03-23T15:10:54;12.73;;;2.70;;
50781;SDS011;36749;37.428;-121.972;2024-03-23T15:13:20;13.65;;;3.80;;
50781;SDS011;36749;37.428;-121.972;2024-03-23T15:15:49;16.05;;;3.50;;
50781;SDS011;36749;37.428;-121.972;2024-03-23T15:18:17;13.40;;;3.83;;
50781;SDS011;36749;37.428;-121.972;2024-03-23T15:20:54;15.20;;;3.92;;
50781;SDS011;36749;37.428;-121.972;2024-03-23T15:23:21;14.38;;;2.42;;
50781;SDS011;36749;37.428;-121.972;2024-03-23T15:25:54;15.18;;;3.10;;
50781;SDS011;36749;37.428;-121.972;2024-03-23T15:28:23;15.35;;;4.20;;
50781;SDS011;36749;37.428;-121.972;2024-03-23T15:31:06;11.70;;;3.63;;
50781;SDS011;36749;37.428;-121.972;2024-03-23T15:33:32;12.13;;;3.42;;
50781;SDS011;36749;37.428;-121.972;2024-03-23T15:35:59;12.75;;;3.28;;
50781;SDS011;36749;37.428;-121.972;2024-03-23T15:38:25;10.80;;;3.25;;
50781;SDS011;36749;37.428;-121.972;2024-03-23T15:40:52;15.80;;;4.43;;
50781;SDS011;36749;37.428;-121.972;2024-03-23T15:43:18;15.50;;;3.17;;
50781;SDS011;36749;37.428;-121.972;2024-03-23T15:45:53;6.30;;;2.70;;
50781;SDS011;36749;37.428;-121.972;2024-03-23T15:48:20;13.00;;;3.08;;
50781;SDS011;36749;37.428;-121.972;2024-03-23T15:50:56;10.40;;;4.13;;
50781;SDS011;36749;37.428;-121.972;2024-03-23T15:53:23;11.45;;;3.35;;
50781;SDS011;36749;37.428;-121.972;2024-03-23T15:56:08;13.80;;;3.53;;
50781;SDS011;36749;37.428;-121.972;2024-03-23T15:58:34;8.48;;;3.17;;
50781;SDS011;36749;37.428;-121.972;2024-03-23T16:01:01;11.70;;;3.20;;
50781;SDS011;36749;37.428;-121.972;2024-03-23T16:03:32;13.13;;;3.20;;